sensor_id;sensor_type;location;lat;lon;timestamp;P1;durP1;ratioP1;P2;durP2;ratioP2
2868;SDS011;1442;47.448;8.582;2023-05-27T00:02:17;16.50;;;7.85;;
2868;SDS011;1442;47.448;8.582;2023-05-27T00:04:45;13.65;;;6.75;;
2868;SDS011;1442;47.448;8.582;2023-05-27T00:07:12;12.25;;;7.13;;
2868;SDS011;1442;47.448;8.582;2023-05-27T00:09:39;9.35;;;7.32;;
2868;SDS011;1442;47.448;8.582;2023-05-27T00:12:06;11.77;;;7.85;;
2868;SDS011;1442;47.448;8.582;2023-05-27T00:14:34;12.00;;;6.80;;
2868;SDS011;1442;47.448;8.582;2023-05-27T00:17:02;14.88;;;7.60;;
2868;SDS011;1442;47.448;8.582;2023-05-27T00:19:29;11.93;;;7.28;;
2868;SDS011;1442;47.448;8.582;2023-05-27T00:21:56;11.20;;;6.35;;
2868;SDS011;1442;47.448;8.582;2023-05-27T00:24:23;10.35;;;7.18;;
2868;SDS011;1442;47.448;8.582;2023-05-27T00:26:51;13.73;;;7.10;;
2868;SDS011;1442;47.448;8.582;2023-05-27T00:29:18;12.07;;;6.57;;
2868;SDS011;1442;47.448;8.582;2023-05-27T00:31:46;13.38;;;6.80;;
2868;SDS011;1442;47.448;8.582;2023-05-27T00:34:14;13.50;;;6.78;;
2868;SDS011;1442;47.448;8.582;2023-05-27T00:36:41;12.27;;;7.00;;
2868;SDS011;1442;47.448;8.582;2023-05-27T00:39:08;12.93;;;6.60;;
2868;SDS011;1442;47.448;8.582;2023-05-27T00:41:35;10.70;;;6.93;;
2868;SDS011;1442;47.448;8.582;2023-05-27T00:44:02;12.00;;;7.25;;
2868;SDS011;1442;47.448;8.582;2023-05-27T00:46:29;11.98;;;6.20;;
2868;SDS011;1442;47.448;8.582;2023-05-27T00:48:58;11.65;;;6.65;;
2868;SDS011;1442;47.448;8.582;2023-05-27T00:51:25;15.48;;;6.43;;
2868;SDS011;1442;47.448;8.582;2023-05-27T00:53:52;10.68;;;6.20;;
2868;SDS011;1442;47.448;8.582;2023-05-27T00:56:19;14.43;;;7.03;;
2868;SDS011;1442;47.448;8.582;2023-05-27T00:58:47;14.93;;;6.70;;
2868;SDS011;1442;47.448;8.582;2023-05-27T01:01:15;15.18;;;7.35;;
2868;SDS011;1442;47.448;8.582;2023-05-27T01:03:42;10.88;;;6.80;;
2868;SDS011;1442;47.448;8.582;2023-05-27T01:06:14;11.27;;;6.57;;
2868;SDS011;1442;47.448;8.582;2023-05-27T01:11:08;12.98;;;7.38;;
2868;SDS011;1442;47.448;8.582;2023-05-27T01:13:38;11.88;;;6.72;;
2868;SDS011;1442;47.448;8.582;2023-05-27T01:16:09;11.90;;;6.43;;
2868;SDS011;1442;47.448;8.582;2023-05-27T01:18:36;9.75;;;6.47;;
2868;SDS011;1442;47.448;8.582;2023-05-27T01:21:05;10.35;;;6.70;;
2868;SDS011;1442;47.448;8.582;2023-05-27T01:23:34;12.45;;;6.85;;
2868;SDS011;1442;47.448;8.582;2023-05-27T01:26:03;14.60;;;7.75;;
2868;SDS011;1442;47.448;8.582;2023-05-27T01:28:30;16.15;;;7.15;;
2868;SDS011;1442;47.448;8.582;2023-05-27T01:31:01;12.38;;;6.82;;
2868;SDS011;1442;47.448;8.582;2023-05-27T01:33:29;17.45;;;7.53;;
2868;SDS011;1442;47.448;8.582;2023-05-27T01:36:02;12.65;;;6.93;;
2868;SDS011;1442;47.448;8.582;2023-05-27T01:38:31;14.70;;;7.60;;
2868;SDS011;1442;47.448;8.582;2023-05-27T01:41:01;14.18;;;7.10;;
2868;SDS011;1442;47.448;8.582;2023-05-27T01:43:28;13.10;;;7.15;;
2868;SDS011;1442;47.448;8.582;2023-05-27T01:45:56;9.73;;;6.22;;
2868;SDS011;1442;47.448;8.582;2023-05-27T01:48:23;12.63;;;7.45;;
2868;SDS011;1442;47.448;8.582;2023-05-27T01:50:50;18.23;;;7.45;;
2868;SDS011;1442;47.448;8.582;2023-05-27T01:53:17;12.23;;;6.75;;
2868;SDS011;1442;47.448;8.582;2023-05-27T01:55:44;11.05;;;6.72;;
2868;SDS011;1442;47.448;8.582;2023-05-27T01:58:13;13.23;;;6.95;;
2868;SDS011;1442;47.448;8.582;2023-05-27T02:00:40;12.35;;;7.53;;
2868;SDS011;1442;47.448;8.582;2023-05-27T02:03:07;10.05;;;6.35;;
2868;SDS011;1442;47.448;8.582;2023-05-27T02:05:34;9.10;;;6.32;;
2868;SDS011;1442;47.448;8.582;2023-05-27T02:08:02;13.05;;;7.25;;
2868;SDS011;1442;47.448;8.582;2023-05-27T02:10:29;11.35;;;6.72;;
2868;SDS011;1442;47.448;8.582;2023-05-27T02:12:56;12.13;;;6.88;;
2868;SDS011;1442;47.448;8.582;2023-05-27T02:15:24;11.38;;;6.65;;
2868;SDS011;1442;47.448;8.582;2023-05-27T02:17:51;15.75;;;7.15;;
2868;SDS011;1442;47.448;8.582;2023-05-27T02:20:20;12.55;;;6.80;;
2868;SDS011;1442;47.448;8.582;2023-05-27T02:22:48;12.15;;;6.57;;
2868;SDS011;1442;47.448;8.582;2023-05-27T02:25:16;14.48;;;7.45;;
2868;SDS011;1442;47.448;8.582;2023-05-27T02:27:43;14.98;;;7.35;;
2868;SDS011;1442;47.448;8.582;2023-05-27T02:30:13;13.45;;;7.32;;
2868;SDS011;1442;47.448;8.582;2023-05-27T02:32:42;15.68;;;7.55;;
2868;SDS011;1442;47.448;8.582;2023-05-27T02:35:12;15.88;;;7.72;;
2868;SDS011;1442;47.448;8.582;2023-05-27T02:37:39;11.98;;;6.88;;
2868;SDS011;1442;47.448;8.582;2023-05-27T02:40:07;15.93;;;7.50;;
2868;SDS011;1442;47.448;8.582;2023-05-27T02:42:34;11.85;;;6.80;;
2868;SDS011;1442;47.448;8.582;2023-05-27T02:45:02;15.45;;;7.88;;
2868;SDS011;1442;47.448;8.582;2023-05-27T02:47:29;12.07;;;7.30;;
2868;SDS011;1442;47.448;8.582;2023-05-27T02:49:57;13.32;;;7.10;;
2868;SDS011;1442;47.448;8.582;2023-05-27T02:52:24;11.35;;;6.78;;
2868;SDS011;1442;47.448;8.582;2023-05-27T02:54:52;11.30;;;6.93;;
2868;SDS011;1442;47.448;8.582;2023-05-27T02:57:20;13.50;;;7.00;;
2868;SDS011;1442;47.448;8.582;2023-05-27T02:59:47;11.77;;;7.50;;
2868;SDS011;1442;47.448;8.582;2023-05-27T03:02:14;14.68;;;7.55;;
2868;SDS011;1442;47.448;8.582;2023-05-27T03:04:41;14.77;;;7.00;;
2868;SDS011;1442;47.448;8.582;2023-05-27T03:07:09;12.70;;;7.80;;
2868;SDS011;1442;47.448;8.582;2023-05-27T03:09:37;17.60;;;8.18;;
2868;SDS011;1442;47.448;8.582;2023-05-27T03:12:04;17.42;;;7.60;;
2868;SDS011;1442;47.448;8.582;2023-05-27T03:14:31;13.18;;;7.13;;
2868;SDS011;1442;47.448;8.582;2023-05-27T03:16:58;16.10;;;7.07;;
2868;SDS011;1442;47.448;8.582;2023-05-27T03:19:26;16.73;;;7.53;;
2868;SDS011;1442;47.448;8.582;2023-05-27T03:21:53;12.43;;;7.32;;
2868;SDS011;1442;47.448;8.582;2023-05-27T03:24:22;18.80;;;8.05;;
2868;SDS011;1442;47.448;8.582;2023-05-27T03:26:50;15.93;;;7.25;;
2868;SDS011;1442;47.448;8.582;2023-05-27T03:29:17;15.55;;;7.97;;
2868;SDS011;1442;47.448;8.582;2023-05-27T03:31:44;11.25;;;7.22;;
2868;SDS011;1442;47.448;8.582;2023-05-27T03:34:11;11.38;;;7.05;;
2868;SDS011;1442;47.448;8.582;2023-05-27T03:36:38;11.88;;;6.88;;
2868;SDS011;1442;47.448;8.582;2023-05-27T03:39:07;17.50;;;7.18;;
2868;SDS011;1442;47.448;8.582;2023-05-27T03:41:36;13.98;;;7.10;;
2868;SDS011;1442;47.448;8.582;2023-05-27T03:44:03;9.10;;;6.85;;
2868;SDS011;1442;47.448;8.582;2023-05-27T03:46:32;14.77;;;7.72;;
2868;SDS011;1442;47.448;8.582;2023-05-27T03:48:59;20.90;;;8.65;;
2868;SDS011;1442;47.448;8.582;2023-05-27T03:51:26;14.23;;;7.75;;
2868;SDS011;1442;47.448;8.582;2023-05-27T03:53:53;15.85;;;7.32;;
2868;SDS011;1442;47.448;8.582;2023-05-27T03:56:20;12.43;;;7.18;;
2868;SDS011;1442;47.448;8.582;2023-05-27T03:58:49;16.55;;;7.25;;
2868;SDS011;1442;47.448;8.582;2023-05-27T04:01:16;12.40;;;7.20;;
2868;SDS011;1442;47.448;8.582;2023-05-27T04:03:45;20.85;;;7.55;;
2868;SDS011;1442;47.448;8.582;2023-05-27T04:06:12;14.15;;;7.07;;
2868;SDS011;1442;47.448;8.582;2023-05-27T04:08:40;17.52;;;8.82;;
2868;SDS011;1442;47.448;8.582;2023-05-27T04:11:09;15.35;;;7.05;;
2868;SDS011;1442;47.448;8.582;2023-05-27T04:13:37;10.60;;;5.82;;
2868;SDS011;1442;47.448;8.582;2023-05-27T04:16:05;11.35;;;6.30;;
2868;SDS011;1442;47.448;8.582;2023-05-27T04:18:35;13.98;;;6.38;;
2868;SDS011;1442;47.448;8.582;2023-05-27T04:21:02;16.58;;;6.22;;
2868;SDS011;1442;47.448;8.582;2023-05-27T04:23:29;17.38;;;6.85;;
2868;SDS011;1442;47.448;8.582;2023-05-27T04:25:56;12.25;;;7.22;;
2868;SDS011;1442;47.448;8.582;2023-05-27T04:28:24;11.13;;;6.35;;
2868;SDS011;1442;47.448;8.582;2023-05-27T04:30:52;12.25;;;6.40;;
2868;SDS011;1442;47.448;8.582;2023-05-27T04:33:20;13.95;;;6.28;;
2868;SDS011;1442;47.448;8.582;2023-05-27T04:35:47;15.02;;;7.28;;
2868;SDS011;1442;47.448;8.582;2023-05-27T04:38:18;12.57;;;6.35;;
2868;SDS011;1442;47.448;8.582;2023-05-27T04:40:46;12.90;;;6.47;;
2868;SDS011;1442;47.448;8.582;2023-05-27T04:43:17;9.00;;;5.22;;
2868;SDS011;1442;47.448;8.582;2023-05-27T04:45:44;13.23;;;5.63;;
2868;SDS011;1442;47.448;8.582;2023-05-27T04:48:12;16.13;;;7.15;;
2868;SDS011;1442;47.448;8.582;2023-05-27T04:50:40;15.45;;;5.68;;
2868;SDS011;1442;47.448;8.582;2023-05-27T04:53:07;11.48;;;5.95;;
2868;SDS011;1442;47.448;8.582;2023-05-27T04:55:35;9.50;;;5.78;;
2868;SDS011;1442;47.448;8.582;2023-05-27T04:58:04;15.63;;;6.07;;
2868;SDS011;1442;47.448;8.582;2023-05-27T05:00:31;11.45;;;5.43;;
2868;SDS011;1442;47.448;8.582;2023-05-27T05:03:04;13.73;;;5.88;;
2868;SDS011;1442;47.448;8.582;2023-05-27T05:05:32;12.73;;;5.43;;
2868;SDS011;1442;47.448;8.582;2023-05-27T05:08:00;11.80;;;6.55;;
2868;SDS011;1442;47.448;8.582;2023-05-27T05:10:28;18.02;;;6.57;;
2868;SDS011;1442;47.448;8.582;2023-05-27T05:12:55;11.75;;;5.85;;
2868;SDS011;1442;47.448;8.582;2023-05-27T05:15:22;10.70;;;5.72;;
2868;SDS011;1442;47.448;8.582;2023-05-27T05:17:50;19.98;;;6.07;;
2868;SDS011;1442;47.448;8.582;2023-05-27T05:20:17;13.77;;;6.13;;
2868;SDS011;1442;47.448;8.582;2023-05-27T05:22:44;12.63;;;5.82;;
2868;SDS011;1442;47.448;8.582;2023-05-27T05:25:12;14.98;;;6.07;;
2868;SDS011;1442;47.448;8.582;2023-05-27T05:27:40;13.57;;;5.85;;
2868;SDS011;1442;47.448;8.582;2023-05-27T05:30:08;16.05;;;6.20;;
2868;SDS011;1442;47.448;8.582;2023-05-27T05:32:35;14.60;;;6.35;;
2868;SDS011;1442;47.448;8.582;2023-05-27T05:35:02;15.50;;;6.45;;
2868;SDS011;1442;47.448;8.582;2023-05-27T05:37:29;18.30;;;6.20;;
2868;SDS011;1442;47.448;8.582;2023-05-27T05:39:56;12.35;;;6.05;;
2868;SDS011;1442;47.448;8.582;2023-05-27T05:42:25;19.92;;;7.05;;
2868;SDS011;1442;47.448;8.582;2023-05-27T05:44:52;16.23;;;5.97;;
2868;SDS011;1442;47.448;8.582;2023-05-27T05:47:19;13.05;;;6.25;;
2868;SDS011;1442;47.448;8.582;2023-05-27T05:49:46;12.27;;;6.30;;
2868;SDS011;1442;47.448;8.582;2023-05-27T05:52:14;13.70;;;5.90;;
2868;SDS011;1442;47.448;8.582;2023-05-27T05:54:41;10.27;;;6.50;;
2868;SDS011;1442;47.448;8.582;2023-05-27T05:57:08;16.10;;;5.63;;
2868;SDS011;1442;47.448;8.582;2023-05-27T05:59:36;12.60;;;6.38;;
2868;SDS011;1442;47.448;8.582;2023-05-27T06:02:04;17.20;;;7.20;;
2868;SDS011;1442;47.448;8.582;2023-05-27T06:04:31;15.27;;;6.25;;
2868;SDS011;1442;47.448;8.582;2023-05-27T06:06:58;14.90;;;6.50;;
2868;SDS011;1442;47.448;8.582;2023-05-27T06:09:25;11.65;;;6.25;;
2868;SDS011;1442;47.448;8.582;2023-05-27T06:11:52;13.70;;;6.25;;
2868;SDS011;1442;47.448;8.582;2023-05-27T06:14:19;12.23;;;6.32;;
2868;SDS011;1442;47.448;8.582;2023-05-27T06:16:48;14.60;;;6.07;;
2868;SDS011;1442;47.448;8.582;2023-05-27T06:19:15;13.85;;;5.63;;
2868;SDS011;1442;47.448;8.582;2023-05-27T06:21:43;13.15;;;5.85;;
2868;SDS011;1442;47.448;8.582;2023-05-27T06:24:10;14.57;;;5.47;;
2868;SDS011;1442;47.448;8.582;2023-05-27T06:26:37;15.00;;;5.95;;
2868;SDS011;1442;47.448;8.582;2023-05-27T06:29:04;12.38;;;5.72;;
2868;SDS011;1442;47.448;8.582;2023-05-27T06:31:31;11.80;;;5.80;;
2868;SDS011;1442;47.448;8.582;2023-05-27T06:34:00;10.68;;;5.38;;
2868;SDS011;1442;47.448;8.582;2023-05-27T06:36:27;12.55;;;7.05;;
2868;SDS011;1442;47.448;8.582;2023-05-27T06:38:54;20.95;;;6.55;;
2868;SDS011;1442;47.448;8.582;2023-05-27T06:41:21;13.15;;;5.85;;
2868;SDS011;1442;47.448;8.582;2023-05-27T06:43:49;17.33;;;6.95;;
2868;SDS011;1442;47.448;8.582;2023-05-27T06:46:16;10.70;;;5.85;;
2868;SDS011;1442;47.448;8.582;2023-05-27T06:48:43;12.95;;;6.07;;
2868;SDS011;1442;47.448;8.582;2023-05-27T06:51:11;16.48;;;6.65;;
2868;SDS011;1442;47.448;8.582;2023-05-27T06:53:38;11.18;;;5.90;;
2868;SDS011;1442;47.448;8.582;2023-05-27T06:56:05;15.18;;;6.82;;
2868;SDS011;1442;47.448;8.582;2023-05-27T06:58:33;11.77;;;6.15;;
2868;SDS011;1442;47.448;8.582;2023-05-27T07:01:00;14.73;;;6.07;;
2868;SDS011;1442;47.448;8.582;2023-05-27T07:03:27;12.65;;;7.10;;
2868;SDS011;1442;47.448;8.582;2023-05-27T07:05:54;10.43;;;6.07;;
2868;SDS011;1442;47.448;8.582;2023-05-27T07:08:23;12.40;;;7.07;;
2868;SDS011;1442;47.448;8.582;2023-05-27T07:10:50;11.82;;;6.43;;
2868;SDS011;1442;47.448;8.582;2023-05-27T07:13:17;14.85;;;6.72;;
2868;SDS011;1442;47.448;8.582;2023-05-27T07:15:44;19.15;;;6.25;;
2868;SDS011;1442;47.448;8.582;2023-05-27T07:18:11;15.13;;;7.03;;
2868;SDS011;1442;47.448;8.582;2023-05-27T07:20:38;10.57;;;6.35;;
2868;SDS011;1442;47.448;8.582;2023-05-27T07:23:06;13.48;;;7.55;;
2868;SDS011;1442;47.448;8.582;2023-05-27T07:25:35;12.43;;;6.47;;
2868;SDS011;1442;47.448;8.582;2023-05-27T07:28:02;15.85;;;7.28;;
2868;SDS011;1442;47.448;8.582;2023-05-27T07:30:29;15.02;;;6.93;;
2868;SDS011;1442;47.448;8.582;2023-05-27T07:32:56;16.27;;;6.55;;
2868;SDS011;1442;47.448;8.582;2023-05-27T07:35:23;12.65;;;7.63;;
2868;SDS011;1442;47.448;8.582;2023-05-27T07:37:50;16.85;;;7.10;;
2868;SDS011;1442;47.448;8.582;2023-05-27T07:40:17;13.40;;;7.57;;
2868;SDS011;1442;47.448;8.582;2023-05-27T07:42:46;12.57;;;7.45;;
2868;SDS011;1442;47.448;8.582;2023-05-27T07:45:13;13.75;;;6.75;;
2868;SDS011;1442;47.448;8.582;2023-05-27T07:47:40;14.02;;;6.68;;
2868;SDS011;1442;47.448;8.582;2023-05-27T07:50:08;18.83;;;8.35;;
2868;SDS011;1442;47.448;8.582;2023-05-27T07:52:35;15.52;;;6.78;;
2868;SDS011;1442;47.448;8.582;2023-05-27T07:55:02;13.30;;;6.88;;
2868;SDS011;1442;47.448;8.582;2023-05-27T07:57:29;15.13;;;7.78;;
2868;SDS011;1442;47.448;8.582;2023-05-27T07:59:58;13.13;;;7.80;;
2868;SDS011;1442;47.448;8.582;2023-05-27T08:02:25;15.98;;;7.20;;
2868;SDS011;1442;47.448;8.582;2023-05-27T08:04:52;14.60;;;7.30;;
2868;SDS011;1442;47.448;8.582;2023-05-27T08:07:19;12.13;;;7.03;;
2868;SDS011;1442;47.448;8.582;2023-05-27T08:09:46;14.68;;;7.10;;
2868;SDS011;1442;47.448;8.582;2023-05-27T08:12:13;18.88;;;8.50;;
2868;SDS011;1442;47.448;8.582;2023-05-27T08:14:40;17.15;;;8.45;;
2868;SDS011;1442;47.448;8.582;2023-05-27T08:17:09;15.13;;;8.73;;
2868;SDS011;1442;47.448;8.582;2023-05-27T08:19:36;13.82;;;7.90;;
2868;SDS011;1442;47.448;8.582;2023-05-27T08:22:03;20.88;;;8.48;;
2868;SDS011;1442;47.448;8.582;2023-05-27T08:24:33;18.15;;;7.95;;
2868;SDS011;1442;47.448;8.582;2023-05-27T08:27:00;17.95;;;8.25;;
2868;SDS011;1442;47.448;8.582;2023-05-27T08:29:30;17.90;;;8.50;;
2868;SDS011;1442;47.448;8.582;2023-05-27T08:31:58;14.73;;;7.75;;
2868;SDS011;1442;47.448;8.582;2023-05-27T08:34:26;14.55;;;7.25;;
2868;SDS011;1442;47.448;8.582;2023-05-27T08:36:54;20.13;;;8.90;;
2868;SDS011;1442;47.448;8.582;2023-05-27T08:39:21;13.77;;;8.38;;
2868;SDS011;1442;47.448;8.582;2023-05-27T08:41:48;15.93;;;8.20;;
2868;SDS011;1442;47.448;8.582;2023-05-27T08:44:15;13.50;;;7.72;;
2868;SDS011;1442;47.448;8.582;2023-05-27T08:46:43;13.80;;;8.27;;
2868;SDS011;1442;47.448;8.582;2023-05-27T08:49:10;13.10;;;8.18;;
2868;SDS011;1442;47.448;8.582;2023-05-27T08:51:39;15.30;;;8.48;;
2868;SDS011;1442;47.448;8.582;2023-05-27T08:54:07;17.55;;;9.05;;
2868;SDS011;1442;47.448;8.582;2023-05-27T08:56:34;14.15;;;8.00;;
2868;SDS011;1442;47.448;8.582;2023-05-27T08:59:02;13.88;;;7.38;;
2868;SDS011;1442;47.448;8.582;2023-05-27T09:01:29;14.68;;;7.47;;
2868;SDS011;1442;47.448;8.582;2023-05-27T09:03:56;16.88;;;7.65;;
2868;SDS011;1442;47.448;8.582;2023-05-27T09:06:23;14.52;;;8.13;;
2868;SDS011;1442;47.448;8.582;2023-05-27T09:08:52;16.98;;;7.68;;
2868;SDS011;1442;47.448;8.582;2023-05-27T09:11:22;15.95;;;7.85;;
2868;SDS011;1442;47.448;8.582;2023-05-27T09:13:52;18.92;;;8.07;;
2868;SDS011;1442;47.448;8.582;2023-05-27T09:16:20;12.02;;;7.70;;
2868;SDS011;1442;47.448;8.582;2023-05-27T09:18:47;15.25;;;8.43;;
2868;SDS011;1442;47.448;8.582;2023-05-27T09:21:15;13.95;;;8.15;;
2868;SDS011;1442;47.448;8.582;2023-05-27T09:23:42;16.88;;;8.00;;
2868;SDS011;1442;47.448;8.582;2023-05-27T09:26:11;14.13;;;8.40;;
2868;SDS011;1442;47.448;8.582;2023-05-27T09:28:38;13.27;;;7.32;;
2868;SDS011;1442;47.448;8.582;2023-05-27T09:31:06;15.07;;;8.05;;
2868;SDS011;1442;47.448;8.582;2023-05-27T09:33:34;10.95;;;7.45;;
2868;SDS011;1442;47.448;8.582;2023-05-27T09:36:02;15.55;;;7.97;;
2868;SDS011;1442;47.448;8.582;2023-05-27T09:38:30;16.58;;;8.73;;
2868;SDS011;1442;47.448;8.582;2023-05-27T09:40:57;14.32;;;7.72;;
2868;SDS011;1442;47.448;8.582;2023-05-27T09:43:26;18.85;;;8.32;;
2868;SDS011;1442;47.448;8.582;2023-05-27T09:45:54;13.43;;;7.50;;
2868;SDS011;1442;47.448;8.582;2023-05-27T09:48:23;16.42;;;7.18;;
2868;SDS011;1442;47.448;8.582;2023-05-27T09:50:50;18.27;;;7.78;;
2868;SDS011;1442;47.448;8.582;2023-05-27T09:53:19;13.25;;;8.35;;
2868;SDS011;1442;47.448;8.582;2023-05-27T09:55:48;12.93;;;7.47;;
2868;SDS011;1442;47.448;8.582;2023-05-27T09:58:15;13.38;;;7.43;;
2868;SDS011;1442;47.448;8.582;2023-05-27T10:00:43;11.25;;;7.28;;
2868;SDS011;1442;47.448;8.582;2023-05-27T10:03:11;13.07;;;7.97;;
2868;SDS011;1442;47.448;8.582;2023-05-27T10:05:42;10.65;;;7.63;;
2868;SDS011;1442;47.448;8.582;2023-05-27T10:08:09;19.05;;;8.45;;
2868;SDS011;1442;47.448;8.582;2023-05-27T10:10:38;16.17;;;8.18;;
2868;SDS011;1442;47.448;8.582;2023-05-27T10:13:05;14.52;;;8.48;;
2868;SDS011;1442;47.448;8.582;2023-05-27T10:15:33;14.23;;;7.55;;
2868;SDS011;1442;47.448;8.582;2023-05-27T10:18:03;13.20;;;8.55;;
2868;SDS011;1442;47.448;8.582;2023-05-27T10:20:34;14.57;;;8.00;;
2868;SDS011;1442;47.448;8.582;2023-05-27T10:23:09;17.50;;;8.13;;
2868;SDS011;1442;47.448;8.582;2023-05-27T10:25:37;14.60;;;7.72;;
2868;SDS011;1442;47.448;8.582;2023-05-27T10:28:04;15.57;;;7.88;;
2868;SDS011;1442;47.448;8.582;2023-05-27T10:30:41;12.88;;;8.00;;
2868;SDS011;1442;47.448;8.582;2023-05-27T10:33:11;13.70;;;8.43;;
2868;SDS011;1442;47.448;8.582;2023-05-27T10:35:38;14.93;;;7.72;;
2868;SDS011;1442;47.448;8.582;2023-05-27T10:38:13;15.18;;;7.40;;
2868;SDS011;1442;47.448;8.582;2023-05-27T10:40:40;13.35;;;8.00;;
2868;SDS011;1442;47.448;8.582;2023-05-27T10:43:14;13.20;;;8.40;;
2868;SDS011;1442;47.448;8.582;2023-05-27T10:45:41;18.45;;;7.85;;
2868;SDS011;1442;47.448;8.582;2023-05-27T10:48:15;13.45;;;7.65;;
2868;SDS011;1442;47.448;8.582;2023-05-27T10:50:49;14.43;;;7.10;;
2868;SDS011;1442;47.448;8.582;2023-05-27T10:53:17;12.82;;;7.43;;
2868;SDS011;1442;47.448;8.582;2023-05-27T10:55:46;16.42;;;8.05;;
2868;SDS011;1442;47.448;8.582;2023-05-27T10:58:15;13.07;;;7.20;;
2868;SDS011;1442;47.448;8.582;2023-05-27T11:00:42;18.10;;;7.50;;
2868;SDS011;1442;47.448;8.582;2023-05-27T11:03:21;12.93;;;7.65;;
2868;SDS011;1442;47.448;8.582;2023-05-27T11:05:58;17.58;;;7.82;;
2868;SDS011;1442;47.448;8.582;2023-05-27T11:08:26;12.85;;;6.93;;
2868;SDS011;1442;47.448;8.582;2023-05-27T11:10:57;11.82;;;6.65;;
2868;SDS011;1442;47.448;8.582;2023-05-27T11:13:29;11.70;;;6.85;;
2868;SDS011;1442;47.448;8.582;2023-05-27T11:15:56;12.60;;;7.40;;
2868;SDS011;1442;47.448;8.582;2023-05-27T11:18:24;15.65;;;8.10;;
2868;SDS011;1442;47.448;8.582;2023-05-27T11:20:51;12.75;;;7.60;;
2868;SDS011;1442;47.448;8.582;2023-05-27T11:23:19;14.48;;;7.60;;
2868;SDS011;1442;47.448;8.582;2023-05-27T11:25:46;12.85;;;7.55;;
2868;SDS011;1442;47.448;8.582;2023-05-27T11:28:14;18.35;;;7.45;;
2868;SDS011;1442;47.448;8.582;2023-05-27T11:30:42;17.98;;;7.50;;
2868;SDS011;1442;47.448;8.582;2023-05-27T11:33:09;13.27;;;6.90;;
2868;SDS011;1442;47.448;8.582;2023-05-27T11:35:38;12.10;;;6.85;;
2868;SDS011;1442;47.448;8.582;2023-05-27T11:38:05;13.15;;;7.28;;
2868;SDS011;1442;47.448;8.582;2023-05-27T11:40:42;12.18;;;7.43;;
2868;SDS011;1442;47.448;8.582;2023-05-27T11:43:10;14.32;;;7.28;;
2868;SDS011;1442;47.448;8.582;2023-05-27T11:45:43;13.05;;;6.35;;
2868;SDS011;1442;47.448;8.582;2023-05-27T11:48:10;12.38;;;7.50;;
2868;SDS011;1442;47.448;8.582;2023-05-27T11:50:39;15.02;;;7.68;;
2868;SDS011;1442;47.448;8.582;2023-05-27T11:53:06;20.50;;;7.43;;
2868;SDS011;1442;47.448;8.582;2023-05-27T11:55:33;15.60;;;8.45;;
2868;SDS011;1442;47.448;8.582;2023-05-27T11:58:00;16.77;;;7.35;;
2868;SDS011;1442;47.448;8.582;2023-05-27T12:00:27;14.57;;;7.20;;
2868;SDS011;1442;47.448;8.582;2023-05-27T12:02:55;14.93;;;6.63;;
2868;SDS011;1442;47.448;8.582;2023-05-27T12:05:22;10.73;;;6.60;;
2868;SDS011;1442;47.448;8.582;2023-05-27T12:07:51;13.80;;;7.07;;
2868;SDS011;1442;47.448;8.582;2023-05-27T12:10:18;10.10;;;7.28;;
2868;SDS011;1442;47.448;8.582;2023-05-27T12:12:46;14.30;;;7.03;;
2868;SDS011;1442;47.448;8.582;2023-05-27T12:15:13;10.85;;;7.00;;
2868;SDS011;1442;47.448;8.582;2023-05-27T12:17:40;14.95;;;7.95;;
2868;SDS011;1442;47.448;8.582;2023-05-27T12:20:08;10.57;;;6.30;;
2868;SDS011;1442;47.448;8.582;2023-05-27T12:22:36;12.40;;;6.70;;
2868;SDS011;1442;47.448;8.582;2023-05-27T12:25:05;8.88;;;6.55;;
2868;SDS011;1442;47.448;8.582;2023-05-27T12:27:32;16.30;;;6.47;;
2868;SDS011;1442;47.448;8.582;2023-05-27T12:29:59;13.52;;;7.28;;
2868;SDS011;1442;47.448;8.582;2023-05-27T12:32:26;16.30;;;7.97;;
2868;SDS011;1442;47.448;8.582;2023-05-27T12:34:54;11.73;;;6.40;;
2868;SDS011;1442;47.448;8.582;2023-05-27T12:37:21;14.07;;;6.72;;
2868;SDS011;1442;47.448;8.582;2023-05-27T12:39:49;11.77;;;6.88;;
2868;SDS011;1442;47.448;8.582;2023-05-27T12:42:18;10.05;;;6.50;;
2868;SDS011;1442;47.448;8.582;2023-05-27T12:44:45;11.60;;;6.30;;
2868;SDS011;1442;47.448;8.582;2023-05-27T12:47:12;10.60;;;6.63;;
2868;SDS011;1442;47.448;8.582;2023-05-27T12:49:40;8.88;;;6.55;;
2868;SDS011;1442;47.448;8.582;2023-05-27T12:52:07;8.52;;;6.90;;
2868;SDS011;1442;47.448;8.582;2023-05-27T12:54:34;15.23;;;6.93;;
2868;SDS011;1442;47.448;8.582;2023-05-27T12:57:02;11.00;;;6.82;;
2868;SDS011;1442;47.448;8.582;2023-05-27T12:59:32;9.98;;;6.43;;
2868;SDS011;1442;47.448;8.582;2023-05-27T13:02:00;12.05;;;6.65;;
2868;SDS011;1442;47.448;8.582;2023-05-27T13:04:27;11.82;;;6.13;;
2868;SDS011;1442;47.448;8.582;2023-05-27T13:06:54;13.30;;;6.78;;
2868;SDS011;1442;47.448;8.582;2023-05-27T13:09:21;11.93;;;6.32;;
2868;SDS011;1442;47.448;8.582;2023-05-27T13:11:48;9.80;;;6.43;;
2868;SDS011;1442;47.448;8.582;2023-05-27T13:14:15;11.10;;;6.38;;
2868;SDS011;1442;47.448;8.582;2023-05-27T13:16:44;10.15;;;5.93;;
2868;SDS011;1442;47.448;8.582;2023-05-27T13:19:11;11.10;;;6.90;;
2868;SDS011;1442;47.448;8.582;2023-05-27T13:21:38;10.43;;;6.13;;
2868;SDS011;1442;47.448;8.582;2023-05-27T13:24:05;8.85;;;6.20;;
2868;SDS011;1442;47.448;8.582;2023-05-27T13:26:32;12.27;;;6.15;;
2868;SDS011;1442;47.448;8.582;2023-05-27T13:28:59;12.95;;;6.63;;
2868;SDS011;1442;47.448;8.582;2023-05-27T13:31:27;9.32;;;6.45;;
2868;SDS011;1442;47.448;8.582;2023-05-27T13:33:56;9.05;;;6.18;;
2868;SDS011;1442;47.448;8.582;2023-05-27T13:36:23;11.80;;;6.55;;
2868;SDS011;1442;47.448;8.582;2023-05-27T13:38:50;8.32;;;5.35;;
2868;SDS011;1442;47.448;8.582;2023-05-27T13:41:18;10.77;;;6.53;;
2868;SDS011;1442;47.448;8.582;2023-05-27T13:43:45;12.05;;;6.35;;
2868;SDS011;1442;47.448;8.582;2023-05-27T13:46:12;10.35;;;5.70;;
2868;SDS011;1442;47.448;8.582;2023-05-27T13:48:39;12.20;;;6.40;;
2868;SDS011;1442;47.448;8.582;2023-05-27T13:51:08;9.95;;;5.75;;
2868;SDS011;1442;47.448;8.582;2023-05-27T13:53:35;9.15;;;6.20;;
2868;SDS011;1442;47.448;8.582;2023-05-27T13:56:02;9.02;;;6.00;;
2868;SDS011;1442;47.448;8.582;2023-05-27T13:58:30;10.55;;;5.70;;
2868;SDS011;1442;47.448;8.582;2023-05-27T14:00:57;14.38;;;6.38;;
2868;SDS011;1442;47.448;8.582;2023-05-27T14:03:24;7.75;;;6.47;;
2868;SDS011;1442;47.448;8.582;2023-05-27T14:05:51;11.23;;;5.63;;
2868;SDS011;1442;47.448;8.582;2023-05-27T14:08:20;11.40;;;6.00;;
2868;SDS011;1442;47.448;8.582;2023-05-27T14:10:47;16.15;;;6.40;;
2868;SDS011;1442;47.448;8.582;2023-05-27T14:13:14;11.45;;;5.97;;
2868;SDS011;1442;47.448;8.582;2023-05-27T14:15:41;14.45;;;6.35;;
2868;SDS011;1442;47.448;8.582;2023-05-27T14:18:08;14.63;;;6.03;;
2868;SDS011;1442;47.448;8.582;2023-05-27T14:20:35;11.15;;;5.75;;
2868;SDS011;1442;47.448;8.582;2023-05-27T14:23:02;11.52;;;5.75;;
2868;SDS011;1442;47.448;8.582;2023-05-27T14:28:03;9.23;;;6.22;;
2868;SDS011;1442;47.448;8.582;2023-05-27T14:30:31;11.10;;;6.13;;
2868;SDS011;1442;47.448;8.582;2023-05-27T14:33:01;12.20;;;6.53;;
2868;SDS011;1442;47.448;8.582;2023-05-27T14:35:28;13.52;;;6.30;;
2868;SDS011;1442;47.448;8.582;2023-05-27T14:37:55;9.43;;;5.78;;
2868;SDS011;1442;47.448;8.582;2023-05-27T14:40:22;11.13;;;5.45;;
2868;SDS011;1442;47.448;8.582;2023-05-27T14:42:50;8.63;;;5.43;;
2868;SDS011;1442;47.448;8.582;2023-05-27T14:45:18;10.38;;;5.82;;
2868;SDS011;1442;47.448;8.582;2023-05-27T14:47:47;11.57;;;6.47;;
2868;SDS011;1442;47.448;8.582;2023-05-27T14:50:15;10.25;;;5.72;;
2868;SDS011;1442;47.448;8.582;2023-05-27T14:52:42;6.53;;;4.95;;
2868;SDS011;1442;47.448;8.582;2023-05-27T14:55:09;11.18;;;6.07;;
2868;SDS011;1442;47.448;8.582;2023-05-27T14:57:36;13.68;;;5.57;;
2868;SDS011;1442;47.448;8.582;2023-05-27T15:00:04;11.73;;;5.38;;
2868;SDS011;1442;47.448;8.582;2023-05-27T15:02:34;8.93;;;5.60;;
2868;SDS011;1442;47.448;8.582;2023-05-27T15:05:01;11.30;;;6.28;;
2868;SDS011;1442;47.448;8.582;2023-05-27T15:07:29;8.43;;;5.50;;
2868;SDS011;1442;47.448;8.582;2023-05-27T15:09:56;8.07;;;5.40;;
2868;SDS011;1442;47.448;8.582;2023-05-27T15:12:23;10.65;;;6.28;;